createdAt,value
2018-03-06T00:00:01.632Z,75.6
2018-03-06T00:00:27.737Z,75.51
2018-03-06T00:00:53.842Z,75.6
2018-03-06T00:01:19.942Z,75.6
2018-03-06T00:01:46.052Z,75.79
2018-03-06T00:02:12.149Z,75.79
2018-03-06T00:02:38.248Z,75.36
2018-03-06T00:03:04.352Z,75.42
2018-03-06T00:03:30.450Z,75.36
2018-03-06T00:03:56.546Z,75.79
2018-03-06T00:04:22.653Z,75.89
2018-03-06T00:04:48.750Z,75.6
2018-03-06T00:05:14.851Z,75.55
2018-03-06T00:05:40.976Z,75.32
2018-03-06T00:06:07.047Z,75.36
2018-03-06T00:06:33.152Z,75.55
2018-03-06T00:06:59.249Z,75.17
2018-03-06T00:07:25.366Z,75.17
2018-03-06T00:07:51.472Z,74.51
2018-03-06T00:08:17.591Z,75.74
2018-03-06T00:08:43.700Z,74.6
2018-03-06T00:09:09.800Z,74.69
2018-03-06T00:09:35.916Z,74.85
2018-03-06T00:10:02.020Z,75.04
2018-03-06T00:10:28.120Z,74.56
2018-03-06T00:10:54.217Z,75.23
2018-03-06T00:11:20.320Z,75.42
2018-03-06T00:11:46.419Z,75.51
2018-03-06T00:12:12.525Z,75.42
2018-03-06T00:12:38.627Z,75.42
2018-03-06T00:13:04.723Z,75.13
2018-03-06T00:13:30.828Z,75.6
2018-03-06T00:13:56.929Z,75.6
2018-03-06T00:14:23.026Z,75.42
2018-03-06T00:14:49.128Z,75.79
2018-03-06T00:15:15.225Z,76.18
2018-03-06T00:15:41.328Z,76.27
2018-03-06T00:16:07.430Z,75.89
2018-03-06T00:16:33.540Z,76.75
2018-03-06T00:16:59.640Z,76.56
2018-03-06T00:17:25.745Z,76.84
2018-03-06T00:17:51.860Z,76.75
2018-03-06T00:18:17.957Z,76.65
2018-03-06T00:18:44.062Z,76.75
2018-03-06T00:19:10.166Z,76.46
2018-03-06T00:19:36.267Z,76.75
2018-03-06T00:20:02.379Z,77.03
2018-03-06T00:20:28.488Z,77.22
2018-03-06T00:20:54.592Z,76.93
2018-03-06T00:21:20.688Z,77.22
2018-03-06T00:21:46.792Z,77.41
2018-03-06T00:22:12.899Z,77.12
2018-03-06T00:22:39.022Z,77.22
2018-03-06T00:23:05.121Z,77.56
2018-03-06T00:23:31.235Z,77.41
2018-03-06T00:23:57.340Z,77.7
2018-03-06T00:24:23.440Z,77.98
2018-03-06T00:24:49.545Z,77.98
2018-03-06T00:25:15.662Z,77.79
2018-03-06T00:25:41.760Z,77.89
2018-03-06T00:26:07.864Z,76.93
2018-03-06T00:26:33.967Z,77.6
2018-03-06T00:27:00.072Z,77.41
2018-03-06T00:27:26.192Z,77.51
2018-03-06T00:27:52.299Z,76.93
2018-03-06T00:28:18.396Z,76.75
2018-03-06T00:28:44.504Z,76.56
2018-03-06T00:29:10.602Z,76.65
2018-03-06T00:29:36.701Z,76.93
2018-03-06T00:30:02.810Z,76.93
2018-03-06T00:30:28.901Z,76.46
2018-03-06T00:30:55.003Z,76.65
2018-03-06T00:31:21.104Z,76.75
2018-03-06T00:31:47.206Z,77.12
2018-03-06T00:32:13.311Z,77.37
2018-03-06T00:32:39.415Z,77.18
2018-03-06T00:33:05.551Z,77.66
2018-03-06T00:33:31.614Z,78.03
2018-03-06T00:33:57.715Z,78.32
2018-03-06T00:34:23.812Z,78.23
2018-03-06T00:34:49.917Z,78.13
2018-03-06T00:35:16.020Z,78.32
2018-03-06T00:35:42.115Z,78.61
2018-03-06T00:36:08.211Z,78.99
2018-03-06T00:36:34.315Z,78.7
2018-03-06T00:37:00.416Z,78.61
2018-03-06T00:37:26.516Z,78.51
2018-03-06T00:37:52.621Z,78.61
2018-03-06T00:38:18.716Z,78.99
2018-03-06T00:38:44.823Z,78.8
2018-03-06T00:39:10.936Z,78.51
2018-03-06T00:39:37.030Z,78.99
2018-03-06T00:40:03.134Z,78.99
2018-03-06T00:40:29.246Z,79.17
2018-03-06T00:40:55.349Z,79.08
2018-03-06T00:41:21.450Z,78.99
2018-03-06T00:41:47.554Z,79.17
2018-03-06T00:42:13.654Z,79.08
2018-03-06T00:42:39.754Z,79.08
2018-03-06T00:43:05.852Z,79.17
2018-03-06T00:43:31.953Z,79.08
2018-03-06T00:43:58.055Z,78.7
2018-03-06T00:44:24.214Z,79.08
2018-03-06T00:44:50.251Z,79.08
2018-03-06T00:45:16.352Z,79.46
2018-03-06T00:45:42.453Z,78.89
2018-03-06T00:46:08.553Z,78.89
2018-03-06T00:46:34.663Z,78.99
2018-03-06T00:47:00.755Z,78.99
2018-03-06T00:47:26.877Z,78.51
2018-03-06T00:47:52.973Z,78.51
2018-03-06T00:48:19.075Z,78.7
2018-03-06T00:48:45.168Z,78.8
2018-03-06T00:49:11.275Z,78.89
2018-03-06T00:49:37.371Z,79.08
2018-03-06T00:50:03.468Z,78.51
2018-03-06T00:50:29.565Z,78.51
2018-03-06T00:50:55.667Z,78.51
2018-03-06T00:51:21.782Z,78.61
2018-03-06T00:51:47.883Z,78.03
2018-03-06T00:52:13.983Z,78.32
2018-03-06T00:52:40.093Z,78.03
2018-03-06T00:53:06.190Z,78.51
2018-03-06T00:53:32.290Z,78.89
2018-03-06T00:53:58.408Z,78.8
2018-03-06T00:54:24.520Z,78.8
2018-03-06T00:54:50.623Z,78.42
2018-03-06T00:55:16.725Z,78.42
2018-03-06T00:55:42.839Z,78.7
2018-03-06T00:56:08.938Z,78.8
2018-03-06T00:56:35.032Z,78.51
2018-03-06T00:57:01.134Z,78.51
2018-03-06T00:57:27.230Z,78.7
2018-03-06T00:57:53.331Z,78.51
2018-03-06T00:58:19.453Z,79.17
2018-03-06T00:58:45.553Z,78.89
2018-03-06T00:59:11.656Z,79.08
2018-03-06T00:59:37.760Z,78.99
2018-03-06T01:00:03.879Z,79.17
2018-03-06T01:00:29.976Z,79.55
2018-03-06T01:00:56.082Z,79.36
2018-03-06T01:01:22.177Z,79.84
2018-03-06T01:01:48.278Z,79.27
2018-03-06T01:02:14.399Z,79.46
2018-03-06T01:02:40.495Z,79.46
2018-03-06T01:03:06.601Z,79.46
2018-03-06T01:03:32.695Z,79.74
2018-03-06T01:03:58.793Z,79.65
2018-03-06T01:04:24.911Z,79.94
2018-03-06T01:04:51.012Z,79.94
2018-03-06T01:05:17.114Z,79.94
2018-03-06T01:05:43.210Z,80.22
2018-03-06T01:06:09.310Z,80.37
2018-03-06T01:06:35.413Z,80.08
2018-03-06T01:07:01.513Z,80.65
2018-03-06T01:07:27.615Z,80.56
2018-03-06T01:07:53.718Z,80.56
2018-03-06T01:08:19.825Z,81.04
2018-03-06T01:08:45.925Z,80.94
2018-03-06T01:09:12.042Z,80.94
2018-03-06T01:09:38.145Z,80.75
2018-03-06T01:10:04.258Z,80.56
2018-03-06T01:10:30.349Z,80.46
2018-03-06T01:10:56.448Z,80.75
2018-03-06T01:11:22.550Z,80.79
2018-03-06T01:11:48.653Z,80.6
2018-03-06T01:12:14.755Z,80.6
2018-03-06T01:12:40.853Z,80.41
2018-03-06T01:13:06.958Z,80.32
2018-03-06T01:13:33.056Z,80.41
2018-03-06T01:13:59.157Z,80.03
2018-03-06T01:14:25.262Z,79.74
2018-03-06T01:14:51.357Z,79.94
2018-03-06T01:15:17.474Z,79.84
2018-03-06T01:15:43.569Z,79.55
2018-03-06T01:16:09.677Z,79.74
2018-03-06T01:16:35.770Z,79.55
2018-03-06T01:17:01.876Z,79.55
2018-03-06T01:17:27.973Z,79.46
2018-03-06T01:17:54.094Z,78.8
2018-03-06T01:18:20.205Z,79.65
2018-03-06T01:18:46.307Z,79.46
2018-03-06T01:19:12.403Z,79.17
2018-03-06T01:19:38.522Z,79.55
2018-03-06T01:20:04.626Z,79.08
2018-03-06T01:20:30.719Z,79.36
2018-03-06T01:20:56.829Z,79.55
2018-03-06T01:21:22.941Z,79.55
2018-03-06T01:21:49.044Z,79.46
2018-03-06T01:22:15.142Z,79.36
2018-03-06T01:22:41.247Z,80.03
2018-03-06T01:23:07.350Z,79.74
2018-03-06T01:23:33.448Z,79.84
2018-03-06T01:23:59.544Z,80.22
2018-03-06T01:24:25.650Z,79.84
2018-03-06T01:24:51.744Z,79.94
2018-03-06T01:25:17.851Z,79.65
2018-03-06T01:25:43.952Z,80.37
2018-03-06T01:26:10.054Z,80.41
2018-03-06T01:26:36.170Z,80.41
2018-03-06T01:27:02.274Z,79.9
2018-03-06T01:27:28.376Z,80.27
2018-03-06T01:27:54.484Z,80.22
2018-03-06T01:28:20.581Z,80.13
2018-03-06T01:28:46.684Z,80.03
2018-03-06T01:29:12.783Z,80.32
2018-03-06T01:29:38.881Z,80.08
2018-03-06T01:30:04.982Z,80.65
2018-03-06T01:30:31.089Z,80.18
2018-03-06T01:30:57.200Z,80.75
2018-03-06T01:31:23.299Z,80.37
2018-03-06T01:31:49.403Z,80.94
2018-03-06T01:32:15.505Z,81.13
2018-03-06T01:32:41.604Z,80.65
2018-03-06T01:33:07.700Z,80.75
2018-03-06T01:33:33.795Z,80.75
2018-03-06T01:33:59.894Z,80.75
2018-03-06T01:34:25.995Z,80.94
2018-03-06T01:34:52.103Z,80.88
2018-03-06T01:35:18.198Z,80.69
2018-03-06T01:35:44.295Z,80.65
2018-03-06T01:36:10.402Z,81.07
2018-03-06T01:36:36.500Z,80.94
2018-03-06T01:37:02.595Z,80.56
2018-03-06T01:37:28.699Z,80.46
2018-03-06T01:37:54.806Z,80.56
2018-03-06T01:38:20.916Z,80.79
2018-03-06T01:38:47.016Z,80.84
2018-03-06T01:39:13.128Z,80.75
2018-03-06T01:39:39.228Z,80.88
2018-03-06T01:40:05.330Z,80.51
2018-03-06T01:40:31.433Z,80.56
2018-03-06T01:40:57.542Z,80.37
2018-03-06T01:41:23.647Z,80.75
2018-03-06T01:41:49.744Z,80.56
2018-03-06T01:42:15.840Z,80.75
2018-03-06T01:42:41.943Z,80.75
2018-03-06T01:43:08.046Z,80.56
2018-03-06T01:43:34.195Z,80.65
2018-03-06T01:44:00.245Z,80.56
2018-03-06T01:44:26.349Z,81.13
2018-03-06T01:44:52.444Z,81.13
2018-03-06T01:45:18.548Z,80.75
2018-03-06T01:45:44.643Z,80.46
2018-03-06T01:46:10.748Z,80.65
2018-03-06T01:46:36.851Z,80.56
2018-03-06T01:47:02.944Z,81.04
2018-03-06T01:47:29.050Z,81.23
2018-03-06T01:47:55.148Z,82.08
2018-03-06T01:48:21.246Z,81.79
2018-03-06T01:48:47.344Z,81.88
2018-03-06T01:49:13.442Z,81.04
2018-03-06T01:49:39.548Z,81.88
2018-03-06T01:50:05.666Z,81.51
2018-03-06T01:50:31.767Z,81.51
2018-03-06T01:50:57.869Z,81.32
2018-03-06T01:51:23.977Z,81.6
2018-03-06T01:51:50.075Z,81.51
2018-03-06T01:52:16.178Z,81.6
2018-03-06T01:52:42.271Z,81.32
2018-03-06T01:53:08.376Z,81.98
2018-03-06T01:53:34.478Z,81.79
2018-03-06T01:54:00.574Z,81.98
2018-03-06T01:54:26.675Z,81.98
2018-03-06T01:54:52.772Z,81.88
2018-03-06T01:55:18.882Z,81.79
2018-03-06T01:55:44.993Z,81.6
2018-03-06T01:56:11.099Z,81.7
2018-03-06T01:56:37.224Z,81.79
2018-03-06T01:57:03.328Z,81.6
2018-03-06T01:57:29.440Z,81.51
2018-03-06T01:57:55.542Z,81.6
2018-03-06T01:58:21.641Z,81.51
2018-03-06T01:58:47.738Z,81.32
2018-03-06T01:59:13.856Z,81.32
2018-03-06T01:59:39.952Z,81.51
2018-03-06T02:00:06.071Z,81.51
2018-03-06T02:00:32.173Z,81.7
2018-03-06T02:00:58.266Z,81.51
2018-03-06T02:01:24.372Z,80.94
2018-03-06T02:01:50.469Z,80.94
2018-03-06T02:02:16.570Z,80.84
2018-03-06T02:02:42.666Z,81.13
2018-03-06T02:03:08.767Z,80.94
2018-03-06T02:03:34.866Z,80.94
2018-03-06T02:04:00.970Z,80.56
2018-03-06T02:04:27.071Z,80.46
2018-03-06T02:04:53.166Z,80.18
2018-03-06T02:05:19.266Z,80.65
2018-03-06T02:05:45.368Z,80.46
2018-03-06T02:06:11.463Z,80.46
2018-03-06T02:06:37.561Z,80.84
2018-03-06T02:07:03.681Z,81.13
2018-03-06T02:07:29.783Z,81.98
2018-03-06T02:07:55.885Z,81.6
2018-03-06T02:08:21.987Z,81.79
2018-03-06T02:08:48.088Z,81.6
2018-03-06T02:09:14.184Z,82.36
2018-03-06T02:09:40.286Z,82.17
2018-03-06T02:10:06.403Z,82.08
2018-03-06T02:10:32.510Z,82.36
2018-03-06T02:10:58.619Z,82.46
2018-03-06T02:11:24.720Z,82.74
2018-03-06T02:11:50.821Z,82.55
2018-03-06T02:12:16.919Z,81.88
2018-03-06T02:12:43.012Z,81.98
2018-03-06T02:13:09.139Z,82.27
2018-03-06T02:13:35.268Z,81.79
2018-03-06T02:14:01.373Z,81.79
2018-03-06T02:14:27.541Z,81.41
2018-03-06T02:14:53.636Z,81.7
2018-03-06T02:15:19.736Z,81.88
2018-03-06T02:15:45.846Z,81.6
2018-03-06T02:16:11.948Z,81.23
2018-03-06T02:16:38.043Z,81.6
2018-03-06T02:17:04.140Z,80.56
2018-03-06T02:17:30.238Z,80.84
2018-03-06T02:17:56.344Z,80.56
2018-03-06T02:18:22.441Z,80.46
2018-03-06T02:18:48.543Z,80.65
2018-03-06T02:19:14.638Z,80.46
2018-03-06T02:19:40.742Z,80.69
2018-03-06T02:20:06.841Z,80.94
2018-03-06T02:20:32.946Z,80.75
2018-03-06T02:20:59.056Z,80.65
2018-03-06T02:21:25.170Z,80.37
2018-03-06T02:21:51.270Z,80.84
2018-03-06T02:22:17.366Z,80.75
2018-03-06T02:22:43.473Z,80.75
2018-03-06T02:23:09.574Z,80.65
2018-03-06T02:23:35.672Z,81.6
2018-03-06T02:24:01.768Z,81.7
2018-03-06T02:24:27.873Z,81.79
2018-03-06T02:24:53.969Z,80.84
2018-03-06T02:25:20.070Z,80.56
2018-03-06T02:25:46.170Z,81.13
2018-03-06T02:26:12.276Z,81.23
2018-03-06T02:26:38.383Z,81.6
2018-03-06T02:27:04.493Z,81.32
2018-03-06T02:27:30.606Z,81.13
2018-03-06T02:27:56.704Z,81.7
2018-03-06T02:28:22.811Z,81.79
2018-03-06T02:28:48.912Z,81.98
2018-03-06T02:29:15.011Z,81.41
2018-03-06T02:29:41.105Z,82.36
2018-03-06T02:30:07.209Z,82.27
2018-03-06T02:30:33.307Z,82.17
2018-03-06T02:30:59.410Z,82.17
2018-03-06T02:31:25.505Z,82.36
2018-03-06T02:31:51.613Z,82.17
2018-03-06T02:32:17.715Z,82.17
2018-03-06T02:32:43.815Z,82.55
2018-03-06T02:33:09.912Z,82.36
2018-03-06T02:33:36.007Z,82.17
2018-03-06T02:34:02.109Z,82.17
2018-03-06T02:34:28.226Z,82.36
2018-03-06T02:34:54.320Z,81.88
2018-03-06T02:35:20.419Z,81.79
2018-03-06T02:35:46.520Z,82.27
2018-03-06T02:36:12.619Z,82.17
2018-03-06T02:36:38.722Z,82.17
2018-03-06T02:37:04.824Z,82.08
2018-03-06T02:37:30.940Z,82.84
2018-03-06T02:37:57.043Z,82.65
2018-03-06T02:38:23.141Z,82.74
2018-03-06T02:38:49.251Z,82.46
2018-03-06T02:39:15.353Z,82.55
2018-03-06T02:39:41.453Z,82.55
2018-03-06T02:40:07.550Z,82.55
2018-03-06T02:40:33.665Z,82.93
2018-03-06T02:40:59.762Z,82.74
2018-03-06T02:41:25.857Z,83.03
2018-03-06T02:41:51.962Z,83.31
2018-03-06T02:42:18.063Z,82.93
2018-03-06T02:42:44.161Z,82.93
2018-03-06T02:43:10.265Z,82.46
2018-03-06T02:43:36.365Z,82.55
2018-03-06T02:44:02.459Z,82.55
2018-03-06T02:44:28.564Z,82.93
2018-03-06T02:44:54.664Z,82.51
2018-03-06T02:45:20.758Z,83.08
2018-03-06T02:45:46.867Z,83.27
2018-03-06T02:46:12.965Z,82.98
2018-03-06T02:46:39.062Z,83.17
2018-03-06T02:47:05.160Z,83.17
2018-03-06T02:47:31.262Z,83.74
2018-03-06T02:47:57.357Z,83.65
2018-03-06T02:48:23.462Z,83.55
2018-03-06T02:48:49.560Z,83.36
2018-03-06T02:49:15.656Z,83.4
2018-03-06T02:49:41.755Z,83.78
2018-03-06T02:50:07.860Z,83.31
2018-03-06T02:50:33.961Z,83.22
2018-03-06T02:51:00.064Z,83.03
2018-03-06T02:51:26.161Z,83.12
2018-03-06T02:51:52.268Z,82.46
2018-03-06T02:52:18.364Z,82.55
2018-03-06T02:52:44.459Z,82.55
2018-03-06T02:53:10.561Z,82.74
2018-03-06T02:53:36.664Z,82.08
2018-03-06T02:54:02.780Z,82.17
2018-03-06T02:54:28.877Z,81.7
2018-03-06T02:54:54.975Z,81.6
2018-03-06T02:55:21.077Z,81.6
2018-03-06T02:55:47.177Z,81.79
2018-03-06T02:56:13.279Z,81.51
2018-03-06T02:56:39.376Z,81.6
2018-03-06T02:57:05.483Z,81.6
2018-03-06T02:57:31.588Z,81.23
2018-03-06T02:57:57.682Z,81.32
2018-03-06T02:58:23.789Z,81.6
2018-03-06T02:58:49.889Z,81.41
2018-03-06T02:59:15.999Z,81.13
2018-03-06T02:59:42.097Z,81.6
2018-03-06T03:00:08.199Z,81.51
2018-03-06T03:00:34.297Z,81.88
2018-03-06T03:01:00.401Z,81.7
2018-03-06T03:01:26.504Z,82.08
2018-03-06T03:01:52.600Z,81.98
2018-03-06T03:02:18.700Z,82.08
2018-03-06T03:02:44.800Z,81.88
2018-03-06T03:03:10.905Z,82.17
2018-03-06T03:03:37.005Z,82.65
2018-03-06T03:04:03.099Z,82.65
2018-03-06T03:04:29.202Z,82.55
2018-03-06T03:04:55.300Z,82.65
2018-03-06T03:05:21.400Z,82.65
2018-03-06T03:05:47.501Z,82.36
2018-03-06T03:06:13.598Z,83.03
2018-03-06T03:06:39.704Z,82.55
2018-03-06T03:07:05.803Z,82.93
2018-03-06T03:07:31.924Z,82.74
2018-03-06T03:07:58.022Z,82.84
2018-03-06T03:08:24.124Z,83.12
2018-03-06T03:08:50.219Z,82.55
2018-03-06T03:09:16.319Z,82.46
2018-03-06T03:09:42.423Z,82.46
2018-03-06T03:10:08.549Z,82.17
2018-03-06T03:10:34.649Z,81.98
2018-03-06T03:11:00.744Z,81.98
2018-03-06T03:11:26.850Z,81.88
2018-03-06T03:11:52.948Z,81.98
2018-03-06T03:12:19.045Z,82.74
2018-03-06T03:12:45.143Z,82.55
2018-03-06T03:13:11.245Z,82.36
2018-03-06T03:13:37.351Z,82.74
2018-03-06T03:14:03.446Z,82.74
2018-03-06T03:14:29.544Z,82.51
2018-03-06T03:14:55.645Z,83.08
2018-03-06T03:15:21.744Z,83.08
2018-03-06T03:15:47.867Z,82.79
2018-03-06T03:16:13.971Z,83.46
2018-03-06T03:16:40.068Z,83.08
2018-03-06T03:17:06.181Z,83.36
2018-03-06T03:17:32.283Z,83.4
2018-03-06T03:17:58.374Z,83.22
2018-03-06T03:18:24.477Z,83.36
2018-03-06T03:18:50.577Z,83.36
2018-03-06T03:19:16.695Z,83.31
2018-03-06T03:19:42.789Z,83.55
2018-03-06T03:20:08.892Z,83.46
2018-03-06T03:20:34.994Z,84.03
2018-03-06T03:21:01.094Z,84.22
2018-03-06T03:21:27.200Z,84.03
2018-03-06T03:21:53.305Z,84.5
2018-03-06T03:22:19.403Z,84.41
2018-03-06T03:22:45.503Z,84.59
2018-03-06T03:23:11.605Z,84.41
2018-03-06T03:23:37.700Z,84.59
2018-03-06T03:24:03.800Z,85.17
2018-03-06T03:24:29.901Z,85.07
2018-03-06T03:24:56.004Z,84.78
2018-03-06T03:25:22.103Z,84.88
2018-03-06T03:25:48.205Z,85.17
2018-03-06T03:26:14.299Z,85.26
2018-03-06T03:26:40.404Z,85.17
2018-03-06T03:27:06.499Z,85.64
2018-03-06T03:27:32.603Z,85.64
2018-03-06T03:27:58.702Z,85.45
2018-03-06T03:28:24.797Z,85.64
2018-03-06T03:28:50.901Z,85.26
2018-03-06T03:29:16.995Z,86.11
2018-03-06T03:29:43.103Z,86.02
2018-03-06T03:30:09.206Z,86.21
2018-03-06T03:30:35.301Z,86.3
2018-03-06T03:31:01.397Z,86.3
2018-03-06T03:31:27.497Z,86.64
2018-03-06T03:31:53.598Z,86.68
2018-03-06T03:32:19.697Z,86.3
2018-03-06T03:32:45.797Z,86.26
2018-03-06T03:33:11.894Z,87.25
2018-03-06T03:33:37.996Z,86.97
2018-03-06T03:34:04.094Z,86.87
2018-03-06T03:34:30.208Z,86.68
2018-03-06T03:34:56.313Z,86.87
2018-03-06T03:35:22.414Z,86.78
2018-03-06T03:35:48.515Z,86.78
2018-03-06T03:36:14.617Z,86.87
2018-03-06T03:36:40.709Z,86.78
2018-03-06T03:37:06.814Z,86.68
2018-03-06T03:37:32.909Z,86.97
2018-03-06T03:37:59.018Z,86.49
2018-03-06T03:38:25.115Z,86.4
2018-03-06T03:38:51.210Z,86.78
2018-03-06T03:39:17.310Z,86.35
2018-03-06T03:39:43.416Z,86.11
2018-03-06T03:40:09.510Z,86.4
2018-03-06T03:40:35.611Z,86.49
2018-03-06T03:41:01.708Z,86.3
2018-03-06T03:41:27.813Z,86.3
2018-03-06T03:41:53.908Z,86.3
2018-03-06T03:42:20.010Z,86.68
2018-03-06T03:42:46.113Z,86.4
2018-03-06T03:43:12.208Z,86.3
2018-03-06T03:43:38.327Z,86.59
2018-03-06T03:44:04.428Z,86.4
2018-03-06T03:44:30.521Z,86.74
2018-03-06T03:44:56.622Z,86.87
2018-03-06T03:45:22.718Z,86.83
2018-03-06T03:45:48.816Z,86.93
2018-03-06T03:46:14.917Z,87.12
2018-03-06T03:46:41.017Z,87.12
2018-03-06T03:47:07.138Z,86.93
2018-03-06T03:47:33.241Z,87.21
2018-03-06T03:47:59.344Z,87.59
2018-03-06T03:48:25.447Z,87.12
2018-03-06T03:48:51.547Z,87.12
2018-03-06T03:49:17.667Z,87.4
2018-03-06T03:49:43.765Z,87.97
2018-03-06T03:50:09.867Z,87.49
2018-03-06T03:50:35.964Z,87.68
2018-03-06T03:51:02.070Z,87.87
2018-03-06T03:51:28.165Z,87.68
2018-03-06T03:51:54.267Z,87.59
2018-03-06T03:52:20.364Z,87.4
2018-03-06T03:52:46.462Z,88.06
2018-03-06T03:53:12.557Z,87.97
2018-03-06T03:53:38.653Z,87.87
2018-03-06T03:54:04.757Z,88.35
2018-03-06T03:54:30.860Z,88.25
2018-03-06T03:54:56.964Z,88.16
2018-03-06T03:55:23.067Z,88.35
2018-03-06T03:55:49.167Z,87.87
2018-03-06T03:56:15.262Z,87.97
2018-03-06T03:56:41.362Z,88.06
2018-03-06T03:57:07.463Z,88.06
2018-03-06T03:57:33.562Z,87.77
2018-03-06T03:57:59.693Z,87.68
2018-03-06T03:58:25.802Z,87.35
2018-03-06T03:58:51.896Z,87.3
2018-03-06T03:59:17.998Z,87.12
2018-03-06T03:59:44.099Z,87.12
2018-03-06T04:00:10.196Z,87.3
2018-03-06T04:00:36.292Z,87.12
2018-03-06T04:01:02.387Z,87.02
2018-03-06T04:01:28.492Z,87.3
2018-03-06T04:01:54.597Z,87.21
2018-03-06T04:02:20.695Z,88.06
2018-03-06T04:02:46.796Z,87.68
2018-03-06T04:03:12.898Z,87.87
2018-03-06T04:03:38.998Z,87.49
2018-03-06T04:04:05.093Z,87.59
2018-03-06T04:04:31.199Z,87.97
2018-03-06T04:04:57.300Z,87.59
2018-03-06T04:05:23.396Z,88.06
2018-03-06T04:05:49.498Z,88.16
2018-03-06T04:06:15.598Z,88.06
2018-03-06T04:06:41.696Z,88.44
2018-03-06T04:07:07.798Z,88.16
2018-03-06T04:07:33.905Z,88.44
2018-03-06T04:07:59.999Z,88.35
2018-03-06T04:08:26.096Z,88.63
2018-03-06T04:08:52.200Z,88.63
2018-03-06T04:09:18.302Z,88.63
2018-03-06T04:09:44.400Z,88.25
2018-03-06T04:10:10.500Z,88.35
2018-03-06T04:10:36.605Z,87.87
2018-03-06T04:11:02.704Z,88.25
2018-03-06T04:11:28.808Z,87.77
2018-03-06T04:11:54.902Z,87.87
2018-03-06T04:12:21.008Z,88.2
2018-03-06T04:12:47.126Z,88.1
2018-03-06T04:13:13.226Z,88.48
2018-03-06T04:13:39.328Z,88.39
2018-03-06T04:14:05.421Z,87.92
2018-03-06T04:14:31.520Z,88.29
2018-03-06T04:14:57.617Z,88.1
2018-03-06T04:15:23.723Z,87.63
2018-03-06T04:15:49.826Z,87.92
2018-03-06T04:16:15.922Z,87.45
2018-03-06T04:16:42.023Z,87.73
2018-03-06T04:17:08.127Z,87.82
2018-03-06T04:17:34.229Z,87.92
2018-03-06T04:18:00.324Z,87.25
2018-03-06T04:18:26.427Z,87.35
2018-03-06T04:18:52.529Z,86.78
2018-03-06T04:19:18.641Z,86.68
2018-03-06T04:19:44.746Z,86.59
2018-03-06T04:20:10.851Z,86.02
2018-03-06T04:20:36.946Z,86.11
2018-03-06T04:21:03.055Z,86.21
2018-03-06T04:21:29.156Z,86.11
2018-03-06T04:21:55.260Z,85.64
2018-03-06T04:22:21.358Z,86.11
2018-03-06T04:22:47.456Z,85.55
2018-03-06T04:23:13.562Z,85.55
2018-03-06T04:23:39.658Z,85.36
2018-03-06T04:24:05.753Z,84.98
2018-03-06T04:24:31.854Z,85.17
2018-03-06T04:24:57.953Z,85.36
2018-03-06T04:25:24.059Z,85.17
2018-03-06T04:25:50.150Z,85.36
2018-03-06T04:26:16.257Z,84.69
2018-03-06T04:26:42.369Z,84.69
2018-03-06T04:27:08.477Z,84.69
2018-03-06T04:27:34.574Z,84.69
2018-03-06T04:28:00.674Z,84.78
2018-03-06T04:28:26.791Z,84.59
2018-03-06T04:28:52.891Z,85.36
2018-03-06T04:29:18.989Z,85.26
2018-03-06T04:29:45.086Z,85.64
2018-03-06T04:30:11.197Z,85.45
2018-03-06T04:30:37.298Z,85.74
2018-03-06T04:31:03.404Z,86.21
2018-03-06T04:31:29.501Z,86.21
2018-03-06T04:31:55.617Z,86.11
2018-03-06T04:32:21.717Z,86.02
2018-03-06T04:32:47.817Z,85.64
2018-03-06T04:33:13.913Z,85.36
2018-03-06T04:33:40.013Z,85.55
2018-03-06T04:34:06.113Z,85.83
2018-03-06T04:34:32.214Z,86.11
2018-03-06T04:34:58.318Z,86.4
2018-03-06T04:35:24.414Z,86.4
2018-03-06T04:35:50.534Z,86.11
2018-03-06T04:36:16.649Z,86.3
2018-03-06T04:36:42.754Z,86.68
2018-03-06T04:37:08.853Z,87.16
2018-03-06T04:37:34.959Z,86.3
2018-03-06T04:38:01.073Z,86.4
2018-03-06T04:38:27.162Z,86.3
2018-03-06T04:38:53.267Z,86.11
2018-03-06T04:39:19.362Z,86.3
2018-03-06T04:39:45.488Z,86.21
2018-03-06T04:40:11.590Z,86.11
2018-03-06T04:40:37.687Z,85.83
2018-03-06T04:41:03.794Z,86.3
2018-03-06T04:41:29.889Z,85.36
2018-03-06T04:41:55.995Z,85.64
2018-03-06T04:42:22.105Z,85.36
2018-03-06T04:42:48.208Z,85.26
2018-03-06T04:43:14.311Z,84.59
2018-03-06T04:43:40.405Z,84.69
2018-03-06T04:44:06.507Z,84.78
2018-03-06T04:44:32.605Z,84.98
2018-03-06T04:44:58.707Z,84.88
2018-03-06T04:45:24.801Z,84.78
2018-03-06T04:45:50.895Z,84.5
2018-03-06T04:46:17.087Z,85.36
2018-03-06T04:46:43.138Z,84.98
2018-03-06T04:47:09.242Z,85.26
2018-03-06T04:47:35.342Z,85.45
2018-03-06T04:48:01.440Z,84.59
2018-03-06T04:48:27.557Z,84.88
2018-03-06T04:48:53.654Z,84.69
2018-03-06T04:49:19.754Z,84.78
2018-03-06T04:49:45.856Z,84.78
2018-03-06T04:50:11.953Z,84.03
2018-03-06T04:50:38.057Z,84.22
2018-03-06T04:51:04.157Z,84.12
2018-03-06T04:51:30.255Z,84.36
2018-03-06T04:51:56.361Z,83.94
2018-03-06T04:52:22.463Z,84.03
2018-03-06T04:52:48.570Z,84.03
2018-03-06T04:53:14.686Z,84.36
2018-03-06T04:53:40.787Z,84.07
2018-03-06T04:54:06.892Z,83.59
2018-03-06T04:54:32.988Z,83.4
2018-03-06T04:54:59.093Z,83.31
2018-03-06T04:55:25.206Z,83.46
2018-03-06T04:55:51.305Z,82.74
2018-03-06T04:56:17.400Z,82.89
2018-03-06T04:56:43.504Z,82.98
2018-03-06T04:57:09.608Z,83.08
2018-03-06T04:57:35.706Z,83.46
2018-03-06T04:58:01.811Z,83.74
2018-03-06T04:58:27.906Z,84.12
2018-03-06T04:58:54.011Z,83.74
2018-03-06T04:59:20.102Z,84.03
2018-03-06T04:59:46.204Z,84.03
2018-03-06T05:00:12.324Z,83.94
2018-03-06T05:00:38.428Z,84.5
2018-03-06T05:01:04.531Z,84.12
2018-03-06T05:01:30.673Z,84.41
2018-03-06T05:01:56.738Z,84.22
2018-03-06T05:02:22.843Z,84.41
2018-03-06T05:02:48.943Z,84.03
2018-03-06T05:03:15.047Z,85.17
2018-03-06T05:03:41.147Z,84.98
2018-03-06T05:04:07.249Z,84.69
2018-03-06T05:04:33.361Z,84.5
2018-03-06T05:04:59.466Z,84.88
2018-03-06T05:05:25.569Z,85.45
2018-03-06T05:05:51.664Z,84.88
2018-03-06T05:06:17.764Z,85.17
2018-03-06T05:06:43.868Z,85.07
2018-03-06T05:07:09.979Z,85.36
2018-03-06T05:07:36.080Z,85.64
2018-03-06T05:08:02.180Z,85.64
2018-03-06T05:08:28.298Z,85.45
2018-03-06T05:08:54.395Z,85.36
2018-03-06T05:09:20.493Z,85.83
2018-03-06T05:09:46.595Z,85.83
2018-03-06T05:10:12.687Z,86.11
2018-03-06T05:10:38.791Z,85.55
2018-03-06T05:11:04.895Z,85.83
2018-03-06T05:11:30.986Z,85.93
2018-03-06T05:11:57.092Z,85.78
2018-03-06T05:12:23.187Z,86.02
2018-03-06T05:12:49.285Z,85.93
2018-03-06T05:13:15.389Z,85.97
2018-03-06T05:13:41.490Z,85.93
2018-03-06T05:14:07.600Z,86.4
2018-03-06T05:14:33.703Z,86.3
2018-03-06T05:14:59.798Z,85.74
2018-03-06T05:15:25.899Z,86.11
2018-03-06T05:15:51.997Z,86.11
2018-03-06T05:16:18.102Z,85.93
2018-03-06T05:16:44.195Z,86.02
2018-03-06T05:17:10.296Z,85.55
2018-03-06T05:17:36.395Z,85.26
2018-03-06T05:18:02.490Z,86.11
2018-03-06T05:18:28.594Z,85.64
2018-03-06T05:18:54.747Z,85.36
2018-03-06T05:19:20.792Z,85.45
2018-03-06T05:19:46.893Z,85.64
2018-03-06T05:20:13.010Z,85.64
2018-03-06T05:20:39.107Z,85.36
2018-03-06T05:21:05.219Z,85.45
2018-03-06T05:21:31.321Z,85.45
2018-03-06T05:21:57.436Z,85.55
2018-03-06T05:22:23.535Z,85.45
2018-03-06T05:22:49.633Z,85.55
2018-03-06T05:23:15.730Z,85.07
2018-03-06T05:23:41.852Z,85.17
2018-03-06T05:24:07.958Z,84.88
2018-03-06T05:24:34.054Z,85.07
2018-03-06T05:25:00.157Z,84.12
2018-03-06T05:25:26.250Z,84.41
2018-03-06T05:25:52.354Z,84.31
2018-03-06T05:26:18.450Z,84.41
2018-03-06T05:26:44.550Z,84.03
2018-03-06T05:27:10.647Z,84.41
2018-03-06T05:27:36.742Z,84.41
2018-03-06T05:28:02.846Z,84.12
2018-03-06T05:28:28.948Z,84.59
2018-03-06T05:28:55.049Z,84.41
2018-03-06T05:29:21.162Z,84.31
2018-03-06T05:29:47.262Z,84.5
2018-03-06T05:30:13.361Z,84.78
2018-03-06T05:30:39.466Z,84.78
2018-03-06T05:31:05.565Z,84.88
2018-03-06T05:31:31.663Z,84.59
2018-03-06T05:31:57.770Z,84.88
2018-03-06T05:32:23.861Z,84.88
2018-03-06T05:32:49.968Z,84.41
2018-03-06T05:33:16.065Z,84.22
2018-03-06T05:33:42.167Z,84.31
2018-03-06T05:34:08.294Z,84.12
2018-03-06T05:34:34.398Z,84.5
2018-03-06T05:35:00.494Z,84.31
2018-03-06T05:35:26.595Z,83.94
2018-03-06T05:35:52.700Z,84.03
2018-03-06T05:36:18.815Z,84.26
2018-03-06T05:36:44.932Z,84.03
2018-03-06T05:37:11.022Z,84.12